Meadow Lake, Alaska
Current Conditions -  °F | °C
As of 12:56 AM on Sunday 26 Oct 2014 (Local Time) from PAWS Reporting Station
Overcast Overcast  
Wind Chill: 30°   Ceiling: 4100
Heat Index: 30°   Visibility: 7mi
Dew Point: 25°   Wind: 0mph
Humidity: 80%   Direction: NA
Pressure: 29.81"   Gusts: NA
Location:  61.5841°N, 149.443°W
Report Text: PAWS 260856Z AUTO 00000KT 7SM OVC041 M01/M04 A2981 RMK AO1 52003
Loading
Personal Weather Stations






























Interactive Weather Map
Tropical Storm Tracking
New forecast layout! Learn more

10-Day Weather Forecast

Advertisements
Track Severe Weather on mobile